createdAt,value
2022-11-03T00:00:52.490Z,9.82
2022-11-03T00:01:55.168Z,9.73
2022-11-03T00:02:57.527Z,18.80
2022-11-03T00:03:59.851Z,5.57
2022-11-03T00:05:22.127Z,9.02
2022-11-03T00:06:24.460Z,7.15
2022-11-03T00:07:26.748Z,8.77
2022-11-03T00:08:29.049Z,6.43
2022-11-03T00:09:31.833Z,8.80
2022-11-03T00:10:34.100Z,7.60
2022-11-03T00:11:38.325Z,6.30
2022-11-03T00:12:40.620Z,11.02
2022-11-03T00:13:44.689Z,6.45
2022-11-03T00:14:46.980Z,8.27
2022-11-03T00:15:49.937Z,8.07
2022-11-03T00:16:52.232Z,5.75
2022-11-03T00:17:54.523Z,11.85
2022-11-03T00:18:56.984Z,7.60
2022-11-03T00:19:59.285Z,6.72
2022-11-03T00:21:07.200Z,11.70
2022-11-03T00:22:09.601Z,6.32
2022-11-03T00:23:12.159Z,6.88
2022-11-03T00:24:14.593Z,8.82
2022-11-03T00:25:16.966Z,8.40
2022-11-03T00:26:24.383Z,7.72
2022-11-03T00:27:26.735Z,8.70
2022-11-03T00:28:31.711Z,9.70
2022-11-03T00:29:33.998Z,7.50
2022-11-03T00:30:36.323Z,6.85
2022-11-03T00:31:41.058Z,9.18
2022-11-03T00:32:43.368Z,8.55
2022-11-03T00:33:46.192Z,8.50
2022-11-03T00:34:48.502Z,9.65
2022-11-03T00:35:50.824Z,7.38
2022-11-03T00:36:53.141Z,5.90
2022-11-03T00:37:55.432Z,6.20
2022-11-03T00:38:57.904Z,10.50
2022-11-03T00:40:00.276Z,6.82
2022-11-03T00:41:04.441Z,5.10
2022-11-03T00:42:06.792Z,5.32
2022-11-03T00:43:09.169Z,7.25
2022-11-03T00:44:13.273Z,7.18
2022-11-03T00:45:15.745Z,6.40
2022-11-03T00:46:19.992Z,6.80
2022-11-03T00:47:24.309Z,6.47
2022-11-03T00:48:30.877Z,5.63
2022-11-03T00:49:33.241Z,5.38
2022-11-03T00:50:35.616Z,9.07
2022-11-03T00:51:37.928Z,7.45
2022-11-03T00:52:40.253Z,6.05
2022-11-03T00:53:55.755Z,8.32
2022-11-03T00:54:58.015Z,7.38
2022-11-03T00:56:01.189Z,10.00
2022-11-03T00:57:03.580Z,4.93
2022-11-03T00:58:05.968Z,5.85
2022-11-03T00:59:09.780Z,9.10
2022-11-03T01:00:12.759Z,8.43
2022-11-03T01:01:20.300Z,8.65
2022-11-03T01:02:22.779Z,7.32
2022-11-03T01:03:25.144Z,7.97
2022-11-03T01:04:46.598Z,7.90
2022-11-03T01:06:07.554Z,7.28
2022-11-03T01:07:10.141Z,4.63
2022-11-03T01:08:12.498Z,6.60
2022-11-03T01:09:14.849Z,5.72
2022-11-03T01:10:17.210Z,11.40
2022-11-03T01:11:40.639Z,8.88
2022-11-03T01:12:46.755Z,10.40
2022-11-03T01:13:49.120Z,12.85
2022-11-03T01:14:53.239Z,5.18
2022-11-03T01:16:01.496Z,4.60
2022-11-03T01:17:12.335Z,8.93
2022-11-03T01:18:14.698Z,35.80
2022-11-03T01:19:17.077Z,24.95
2022-11-03T01:20:19.352Z,13.32
2022-11-03T01:21:21.879Z,83.38
2022-11-03T01:22:24.334Z,84.82
2022-11-03T01:23:26.625Z,124.15
2022-11-03T01:24:28.900Z,53.38
2022-11-03T01:25:31.457Z,32.30
2022-11-03T01:26:33.762Z,22.02
2022-11-03T01:27:36.113Z,19.33
2022-11-03T01:28:40.631Z,15.45
2022-11-03T01:29:43.352Z,14.45
2022-11-03T01:30:45.673Z,11.90
2022-11-03T01:31:48.894Z,12.88
2022-11-03T01:32:51.200Z,9.27
2022-11-03T01:33:55.461Z,10.90
2022-11-03T01:34:57.902Z,12.70
2022-11-03T01:36:00.328Z,12.27
2022-11-03T01:37:02.897Z,12.00
2022-11-03T01:38:05.921Z,9.40
2022-11-03T01:39:14.788Z,8.85
2022-11-03T01:40:17.186Z,9.07
2022-11-03T01:41:22.888Z,12.57
2022-11-03T01:42:25.244Z,7.78
2022-11-03T01:43:29.074Z,9.88
2022-11-03T01:44:36.865Z,53.90
2022-11-03T01:45:39.293Z,123.55
2022-11-03T01:46:56.411Z,53.40
2022-11-03T01:49:11.749Z,16.83
2022-11-03T01:50:18.106Z,17.38
2022-11-03T01:51:23.196Z,13.68
2022-11-03T01:52:36.463Z,12.70
2022-11-03T01:53:42.828Z,11.25
2022-11-03T01:54:48.911Z,14.38
2022-11-03T01:55:51.911Z,10.73
2022-11-03T01:56:55.522Z,12.25
2022-11-03T01:58:21.504Z,10.48
2022-11-03T01:59:24.860Z,11.98
2022-11-03T02:00:27.345Z,17.30
2022-11-03T02:01:31.182Z,8.80
2022-11-03T02:02:33.720Z,11.43
2022-11-03T02:03:39.556Z,8.55
2022-11-03T02:04:43.022Z,10.93
2022-11-03T02:05:46.997Z,7.43
2022-11-03T02:06:58.058Z,12.20
2022-11-03T02:08:13.314Z,9.15
2022-11-03T02:09:21.765Z,8.75
2022-11-03T02:10:24.726Z,11.35
2022-11-03T02:11:59.501Z,7.00
2022-11-03T02:13:07.861Z,5.47
2022-11-03T02:14:13.961Z,6.95
2022-11-03T02:15:18.822Z,6.40
2022-11-03T02:16:23.679Z,61.30
2022-11-03T02:17:28.875Z,24.25
2022-11-03T02:18:34.301Z,37.47
2022-11-03T02:19:45.421Z,16.38
2022-11-03T02:21:04.300Z,37.88
2022-11-03T02:22:51.011Z,80.55
2022-11-03T02:24:03.261Z,27.20
2022-11-03T02:25:08.622Z,18.58
2022-11-03T02:26:13.274Z,21.17
2022-11-03T02:27:15.624Z,17.10
2022-11-03T02:28:21.360Z,14.57
2022-11-03T02:29:23.874Z,18.05
2022-11-03T02:30:33.294Z,15.55
2022-11-03T02:31:43.347Z,11.30
2022-11-03T02:32:58.849Z,13.75
2022-11-03T02:34:08.124Z,11.05
2022-11-03T02:35:36.370Z,14.88
2022-11-03T02:36:56.643Z,10.25
2022-11-03T02:38:02.056Z,11.95
2022-11-03T02:39:15.159Z,11.45
2022-11-03T02:40:45.871Z,10.82
2022-11-03T02:41:50.664Z,7.28
2022-11-03T02:42:53.968Z,12.13
2022-11-03T02:43:57.542Z,13.73
2022-11-03T02:45:04.110Z,10.07
2022-11-03T02:46:07.383Z,13.40
2022-11-03T02:47:12.884Z,9.40
2022-11-03T02:48:17.695Z,7.35
2022-11-03T02:49:20.145Z,10.90
2022-11-03T02:50:27.585Z,10.00
2022-11-03T02:51:29.901Z,10.93
2022-11-03T02:52:35.278Z,5.80
2022-11-03T02:53:43.295Z,7.82
2022-11-03T02:54:46.420Z,17.40
2022-11-03T02:55:54.662Z,19.92
2022-11-03T02:57:03.271Z,19.95
2022-11-03T02:58:14.376Z,27.85
2022-11-03T02:59:23.740Z,23.63
2022-11-03T03:00:28.766Z,13.60
2022-11-03T03:01:49.036Z,11.85
2022-11-03T03:03:18.054Z,12.25
2022-11-03T03:04:30.580Z,9.80
2022-11-03T03:05:35.418Z,7.68
2022-11-03T03:06:48.827Z,11.00
2022-11-03T03:07:56.366Z,16.23
2022-11-03T03:09:02.940Z,10.60
2022-11-03T03:10:12.243Z,6.40
2022-11-03T03:11:14.834Z,8.23
2022-11-03T03:12:19.675Z,6.90
2022-11-03T03:13:23.444Z,11.13
2022-11-03T03:14:31.917Z,6.85
2022-11-03T03:15:48.791Z,8.10
2022-11-03T03:17:10.095Z,8.43
2022-11-03T03:18:45.810Z,12.05
2022-11-03T03:20:01.289Z,6.78
2022-11-03T03:21:12.911Z,8.40
2022-11-03T03:22:28.248Z,5.38
2022-11-03T03:23:36.836Z,6.45
2022-11-03T03:25:02.397Z,5.00
2022-11-03T03:26:12.411Z,8.95
2022-11-03T03:27:18.305Z,7.07
2022-11-03T03:28:29.034Z,9.60
2022-11-03T03:29:50.392Z,10.73
2022-11-03T03:30:56.393Z,8.38
2022-11-03T03:32:02.610Z,9.63
2022-11-03T03:33:08.796Z,7.20
2022-11-03T03:34:34.666Z,7.05
2022-11-03T03:35:40.982Z,8.48
2022-11-03T03:36:46.237Z,9.63
2022-11-03T03:37:52.266Z,9.57
2022-11-03T03:39:01.249Z,11.25
2022-11-03T03:40:07.541Z,8.20
2022-11-03T03:41:21.631Z,13.90
2022-11-03T03:42:27.969Z,17.40
2022-11-03T03:43:32.700Z,9.43
2022-11-03T03:44:37.614Z,11.90
2022-11-03T03:45:43.102Z,8.93
2022-11-03T03:46:50.856Z,9.13
2022-11-03T03:47:57.550Z,9.57
2022-11-03T03:49:00.418Z,5.93
2022-11-03T03:50:03.228Z,10.93
2022-11-03T03:51:06.665Z,18.83
2022-11-03T03:52:09.311Z,61.33
2022-11-03T03:53:13.182Z,58.80
2022-11-03T03:54:15.485Z,36.30
2022-11-03T03:55:21.843Z,47.25
2022-11-03T03:56:30.062Z,44.83
2022-11-03T03:57:32.544Z,58.15
2022-11-03T03:58:34.896Z,59.80
2022-11-03T03:59:37.216Z,65.20
2022-11-03T04:00:42.710Z,36.55
2022-11-03T04:01:45.197Z,38.13
2022-11-03T04:02:47.595Z,30.45
2022-11-03T04:03:49.979Z,39.22
2022-11-03T04:04:52.715Z,28.48
2022-11-03T04:05:55.037Z,25.55
2022-11-03T04:07:16.134Z,16.75
2022-11-03T04:08:18.847Z,17.50
2022-11-03T04:09:21.149Z,15.13
2022-11-03T04:10:24.127Z,19.42
2022-11-03T04:11:45.353Z,16.92
2022-11-03T04:13:06.904Z,14.55
2022-11-03T04:14:30.412Z,15.85
2022-11-03T04:16:02.103Z,15.55
2022-11-03T04:17:22.975Z,13.32
2022-11-03T04:18:44.034Z,13.57
2022-11-03T04:20:06.381Z,14.63
2022-11-03T04:21:30.563Z,12.93
2022-11-03T04:22:33.731Z,16.85
2022-11-03T04:23:36.028Z,16.80
2022-11-03T04:24:38.339Z,11.82
2022-11-03T04:25:41.912Z,12.93
2022-11-03T04:26:44.283Z,13.75
2022-11-03T04:27:46.628Z,16.20
2022-11-03T04:28:50.454Z,15.93
2022-11-03T04:29:56.211Z,15.85
2022-11-03T04:30:59.791Z,11.45
2022-11-03T04:32:02.356Z,16.67
2022-11-03T04:33:12.257Z,14.40
2022-11-03T04:34:14.516Z,12.90
2022-11-03T04:35:19.511Z,13.60
2022-11-03T04:36:23.586Z,17.50
2022-11-03T04:37:31.028Z,13.38
2022-11-03T04:38:34.293Z,14.65
2022-11-03T04:39:36.713Z,11.43
2022-11-03T04:40:49.176Z,15.00
2022-11-03T04:41:54.382Z,14.90
2022-11-03T04:42:57.884Z,12.43
2022-11-03T04:44:00.163Z,133.07
2022-11-03T04:45:12.069Z,81.07
2022-11-03T04:46:17.617Z,61.53
2022-11-03T04:47:19.917Z,52.85
2022-11-03T04:48:23.747Z,33.05
2022-11-03T04:49:26.058Z,22.17
2022-11-03T04:50:28.558Z,26.42
2022-11-03T04:51:34.703Z,25.15
2022-11-03T04:52:37.285Z,28.25
2022-11-03T04:53:48.448Z,25.50
2022-11-03T04:54:53.502Z,21.65
2022-11-03T04:55:55.904Z,22.77
2022-11-03T04:56:58.198Z,22.15
2022-11-03T04:58:10.330Z,18.95
2022-11-03T04:59:14.892Z,19.65
2022-11-03T05:00:19.152Z,15.50
2022-11-03T05:01:24.542Z,17.77
2022-11-03T05:02:27.237Z,17.63
2022-11-03T05:03:40.814Z,18.73
2022-11-03T05:04:43.263Z,18.55
2022-11-03T05:05:45.691Z,17.67
2022-11-03T05:06:52.454Z,17.42
2022-11-03T05:07:58.308Z,15.35
2022-11-03T05:09:05.444Z,20.85
2022-11-03T05:10:12.669Z,20.55
2022-11-03T05:11:43.375Z,20.00
2022-11-03T05:12:47.750Z,16.42
2022-11-03T05:13:51.676Z,15.57
2022-11-03T05:14:58.069Z,17.05
2022-11-03T05:16:06.436Z,18.35
2022-11-03T05:17:25.997Z,18.98
2022-11-03T05:18:35.333Z,14.65
2022-11-03T05:19:40.901Z,20.65
2022-11-03T05:20:54.742Z,13.98
2022-11-03T05:21:59.067Z,18.30
2022-11-03T05:23:01.446Z,17.58
2022-11-03T05:25:32.467Z,17.67
2022-11-03T05:26:35.691Z,16.95
2022-11-03T05:27:38.009Z,19.80
2022-11-03T05:28:44.552Z,17.42
2022-11-03T05:29:48.490Z,17.05
2022-11-03T05:30:51.703Z,15.23
2022-11-03T05:31:55.652Z,15.48
2022-11-03T05:32:58.621Z,12.70
2022-11-03T05:34:04.189Z,15.55
2022-11-03T05:35:22.913Z,19.48
2022-11-03T05:36:27.892Z,78.28
2022-11-03T05:37:34.122Z,57.83
2022-11-03T05:38:36.604Z,47.83
2022-11-03T05:39:43.588Z,62.47
2022-11-03T05:40:46.391Z,44.75
2022-11-03T05:41:48.652Z,31.65
2022-11-03T05:42:55.732Z,35.60
2022-11-03T05:44:01.749Z,26.67
2022-11-03T05:45:20.744Z,23.98
2022-11-03T05:46:24.300Z,23.45
2022-11-03T05:47:38.914Z,20.83
2022-11-03T05:48:46.277Z,26.35
2022-11-03T05:49:52.739Z,21.70
2022-11-03T05:51:00.078Z,21.25
2022-11-03T05:52:02.676Z,20.92
2022-11-03T05:53:31.463Z,27.48
2022-11-03T05:54:35.286Z,22.25
2022-11-03T05:55:37.889Z,24.70
2022-11-03T05:56:40.277Z,18.60
2022-11-03T05:57:42.753Z,19.70
2022-11-03T05:58:46.515Z,21.35
2022-11-03T05:59:51.269Z,19.60
2022-11-03T06:00:54.528Z,19.50
2022-11-03T06:02:00.659Z,23.60
2022-11-03T06:03:04.877Z,15.65
2022-11-03T06:04:28.858Z,17.50
2022-11-03T06:05:33.515Z,20.73
2022-11-03T06:06:38.311Z,16.65
2022-11-03T06:07:40.665Z,15.65
2022-11-03T06:08:45.884Z,27.65
2022-11-03T06:09:48.635Z,22.55
2022-11-03T06:10:54.305Z,21.67
2022-11-03T06:11:58.963Z,20.00
2022-11-03T06:13:09.450Z,20.33
2022-11-03T06:14:24.908Z,20.60
2022-11-03T06:15:35.384Z,24.58
2022-11-03T06:16:43.802Z,19.77
2022-11-03T06:17:46.230Z,21.42
2022-11-03T06:18:48.545Z,20.85
2022-11-03T06:19:54.532Z,25.08
2022-11-03T06:21:09.818Z,19.38
2022-11-03T06:22:23.860Z,19.50
2022-11-03T06:23:26.841Z,20.83
2022-11-03T06:24:32.093Z,24.08
2022-11-03T06:25:37.311Z,23.65
2022-11-03T06:26:41.511Z,24.52
2022-11-03T06:27:43.854Z,24.38
2022-11-03T06:28:48.187Z,25.70
2022-11-03T06:30:02.363Z,29.88
2022-11-03T06:31:07.126Z,22.80
2022-11-03T06:32:13.150Z,18.52
2022-11-03T06:33:18.222Z,21.25
2022-11-03T06:34:43.808Z,19.17
2022-11-03T06:35:46.193Z,23.42
2022-11-03T06:36:48.716Z,17.05
2022-11-03T06:37:51.536Z,27.52
2022-11-03T06:39:01.201Z,17.38
2022-11-03T06:40:24.855Z,20.02
2022-11-03T06:41:30.697Z,20.35
2022-11-03T06:42:33.334Z,23.30
2022-11-03T06:43:41.633Z,19.83
2022-11-03T06:44:49.023Z,19.63
2022-11-03T06:45:57.148Z,22.73
2022-11-03T06:47:06.847Z,24.00
2022-11-03T06:48:15.717Z,20.90
2022-11-03T06:49:29.597Z,23.27
2022-11-03T06:50:33.040Z,23.13
2022-11-03T06:51:35.694Z,20.63
2022-11-03T06:52:43.465Z,27.23
2022-11-03T06:53:46.319Z,27.73
2022-11-03T06:54:51.027Z,24.88
2022-11-03T06:55:53.881Z,23.58
2022-11-03T06:56:56.218Z,41.08
2022-11-03T06:58:32.545Z,28.95
2022-11-03T06:59:34.869Z,37.58
2022-11-03T07:00:42.149Z,134.75
2022-11-03T07:01:54.496Z,131.93
2022-11-03T07:03:33.090Z,71.40
2022-11-03T07:04:35.472Z,36.92
2022-11-03T07:05:38.691Z,33.80
2022-11-03T07:06:47.848Z,28.77
2022-11-03T07:07:59.844Z,23.60
2022-11-03T07:09:05.652Z,30.65
2022-11-03T07:10:08.835Z,27.85
2022-11-03T07:11:19.813Z,34.05
2022-11-03T07:12:22.129Z,23.48
2022-11-03T07:13:25.745Z,22.33
2022-11-03T07:14:31.185Z,25.58
2022-11-03T07:15:37.467Z,20.48
2022-11-03T07:16:53.631Z,24.42
2022-11-03T07:17:56.759Z,25.45
2022-11-03T07:19:11.417Z,25.50
2022-11-03T07:20:16.078Z,23.70
2022-11-03T07:21:40.537Z,25.35
2022-11-03T07:22:44.253Z,29.23
2022-11-03T07:23:49.438Z,22.88
2022-11-03T07:24:55.027Z,21.77
2022-11-03T07:26:00.529Z,23.20
2022-11-03T07:27:25.082Z,20.80
2022-11-03T07:28:32.897Z,29.77
2022-11-03T07:29:35.374Z,25.60
2022-11-03T07:30:37.907Z,23.70
2022-11-03T07:31:40.275Z,23.05
2022-11-03T07:32:42.695Z,23.95
2022-11-03T07:33:45.567Z,22.30
2022-11-03T07:34:49.486Z,20.65
2022-11-03T07:36:14.218Z,19.13
2022-11-03T07:37:25.293Z,18.90
2022-11-03T07:38:29.081Z,22.00
2022-11-03T07:39:37.279Z,19.67
2022-11-03T07:40:39.923Z,19.52
2022-11-03T07:41:42.497Z,20.40
2022-11-03T07:42:47.856Z,17.90
2022-11-03T07:43:59.087Z,18.02
2022-11-03T07:45:01.495Z,20.58
2022-11-03T07:46:04.891Z,17.63
2022-11-03T07:47:13.482Z,24.45
2022-11-03T07:48:29.002Z,18.38
2022-11-03T07:49:31.259Z,17.85
2022-11-03T07:50:33.541Z,19.67
2022-11-03T07:51:40.639Z,16.48
2022-11-03T07:52:43.715Z,18.05
2022-11-03T07:53:48.631Z,17.58
2022-11-03T07:54:54.930Z,27.17
2022-11-03T07:55:58.048Z,20.40
2022-11-03T07:57:14.675Z,18.15
2022-11-03T07:58:25.954Z,18.17
2022-11-03T08:00:36.464Z,18.80
2022-11-03T08:01:43.091Z,19.80
2022-11-03T08:02:55.177Z,17.38
2022-11-03T08:04:05.566Z,15.57
2022-11-03T08:05:08.941Z,19.02
2022-11-03T08:06:11.844Z,17.85
2022-11-03T08:07:15.816Z,20.58
2022-11-03T08:08:18.106Z,20.33
2022-11-03T08:09:21.122Z,19.40
2022-11-03T08:10:23.466Z,17.48
2022-11-03T08:11:29.670Z,21.90
2022-11-03T08:12:33.091Z,17.75
2022-11-03T08:13:35.560Z,18.73
2022-11-03T08:14:38.074Z,19.50
2022-11-03T08:15:40.503Z,17.02
2022-11-03T08:16:42.851Z,18.77
2022-11-03T08:17:45.199Z,18.25
2022-11-03T08:18:47.777Z,17.88
2022-11-03T08:19:50.113Z,22.15
2022-11-03T08:20:52.585Z,15.82
2022-11-03T08:21:54.843Z,16.35
2022-11-03T08:23:20.087Z,17.65
2022-11-03T08:24:19.585Z,14.75
2022-11-03T08:25:22.276Z,18.30
2022-11-03T08:26:24.602Z,15.98
2022-11-03T08:27:27.612Z,16.13
2022-11-03T08:28:30.841Z,19.40
2022-11-03T08:29:33.221Z,21.40
2022-11-03T08:30:35.579Z,17.45
2022-11-03T08:31:38.007Z,21.70
2022-11-03T08:32:40.365Z,15.63
2022-11-03T08:33:42.801Z,23.38
2022-11-03T08:34:45.122Z,16.92
2022-11-03T08:35:47.494Z,18.75
2022-11-03T08:36:49.883Z,19.58
2022-11-03T08:37:52.214Z,17.00
2022-11-03T08:38:54.488Z,14.77
2022-11-03T08:39:56.801Z,18.10
2022-11-03T08:40:59.096Z,13.75
2022-11-03T08:42:01.448Z,19.60
2022-11-03T08:43:04.872Z,17.35
2022-11-03T08:44:07.280Z,16.38
2022-11-03T08:45:09.998Z,13.90
2022-11-03T08:46:17.587Z,15.25
2022-11-03T08:47:20.819Z,16.98
2022-11-03T08:48:27.152Z,19.88
2022-11-03T08:49:29.503Z,15.88
2022-11-03T08:50:31.906Z,17.17
2022-11-03T08:51:34.251Z,16.45
2022-11-03T08:52:36.644Z,13.90
2022-11-03T08:53:39.219Z,11.27
2022-11-03T08:54:41.483Z,14.95
2022-11-03T08:55:43.864Z,15.38
2022-11-03T08:56:46.840Z,12.32
2022-11-03T08:57:49.168Z,15.07
2022-11-03T08:58:51.598Z,15.25
2022-11-03T08:59:54.857Z,19.95
2022-11-03T09:00:57.412Z,18.63
2022-11-03T09:01:59.810Z,14.43
2022-11-03T09:03:02.753Z,24.55
2022-11-03T09:04:05.428Z,16.20
2022-11-03T09:05:08.067Z,15.50
2022-11-03T09:06:10.813Z,16.40
2022-11-03T09:07:13.412Z,16.58
2022-11-03T09:11:00.373Z,18.42
2022-11-03T09:12:02.734Z,15.45
2022-11-03T09:13:05.952Z,16.55
2022-11-03T09:14:08.605Z,15.48
2022-11-03T09:15:11.621Z,15.23
2022-11-03T09:16:13.949Z,15.45
2022-11-03T09:17:16.207Z,15.05
2022-11-03T09:18:18.752Z,14.45
2022-11-03T09:19:21.534Z,17.13
2022-11-03T09:20:23.846Z,14.80
2022-11-03T09:21:26.208Z,14.50
2022-11-03T09:22:28.556Z,13.63
2022-11-03T09:23:31.017Z,13.32
2022-11-03T09:24:33.603Z,12.85
2022-11-03T09:25:35.972Z,15.35
2022-11-03T09:26:38.685Z,12.80
2022-11-03T09:27:41.017Z,14.23
2022-11-03T09:28:43.332Z,13.57
2022-11-03T09:30:11.043Z,14.50
2022-11-03T09:31:08.160Z,13.65
2022-11-03T09:32:10.801Z,12.25
2022-11-03T09:33:13.118Z,16.42
2022-11-03T09:34:15.541Z,13.63
2022-11-03T09:35:17.890Z,13.82
2022-11-03T09:36:20.465Z,11.15
2022-11-03T09:37:23.074Z,13.18
2022-11-03T09:38:25.359Z,11.82
2022-11-03T09:39:28.157Z,11.40
2022-11-03T09:40:30.625Z,11.52
2022-11-03T09:41:53.707Z,14.70
2022-11-03T09:42:56.901Z,9.75
2022-11-03T09:44:00.333Z,13.85
2022-11-03T09:45:04.648Z,9.00
2022-11-03T09:46:06.990Z,13.20
2022-11-03T09:47:12.730Z,11.43
2022-11-03T09:48:15.316Z,12.70
2022-11-03T09:49:20.356Z,11.77
2022-11-03T09:50:22.839Z,10.05
2022-11-03T09:51:27.139Z,15.02
2022-11-03T09:52:30.954Z,10.30
2022-11-03T09:53:33.368Z,12.52
2022-11-03T09:54:35.759Z,11.73
2022-11-03T09:55:39.982Z,12.63
2022-11-03T09:56:43.436Z,11.38
2022-11-03T09:57:47.331Z,11.80
2022-11-03T09:58:53.985Z,8.75
2022-11-03T09:59:57.121Z,12.10
2022-11-03T10:01:01.165Z,9.10
2022-11-03T10:02:03.821Z,9.85
2022-11-03T10:03:06.879Z,14.10
2022-11-03T10:04:11.171Z,11.23
2022-11-03T10:05:23.951Z,8.77
2022-11-03T10:06:26.218Z,11.15
2022-11-03T10:07:30.568Z,11.73
2022-11-03T10:08:35.599Z,11.40
2022-11-03T10:09:42.806Z,9.27
2022-11-03T10:10:45.147Z,10.90
2022-11-03T10:11:50.180Z,6.45
2022-11-03T10:12:53.494Z,10.32
2022-11-03T10:13:57.459Z,8.90
2022-11-03T10:14:59.892Z,11.20
2022-11-03T10:16:05.229Z,6.95
2022-11-03T10:17:18.362Z,7.15
2022-11-03T10:18:20.933Z,9.80
2022-11-03T10:19:24.096Z,6.70
2022-11-03T10:20:29.145Z,5.40
2022-11-03T10:21:34.061Z,6.70
2022-11-03T10:22:40.854Z,9.10
2022-11-03T10:23:44.123Z,7.07
2022-11-03T10:24:46.487Z,14.82
2022-11-03T10:25:48.836Z,7.28
2022-11-03T10:26:55.045Z,16.50
2022-11-03T10:28:23.255Z,8.45
2022-11-03T10:29:28.271Z,6.70
2022-11-03T10:30:36.261Z,13.25
2022-11-03T10:31:50.475Z,9.95
2022-11-03T10:32:52.920Z,8.07
2022-11-03T10:33:56.160Z,13.27
2022-11-03T10:34:58.654Z,9.15
2022-11-03T10:36:03.665Z,14.05
2022-11-03T10:37:14.650Z,6.32
2022-11-03T10:38:31.801Z,8.48
2022-11-03T10:39:34.081Z,11.80
2022-11-03T10:40:52.537Z,7.63
2022-11-03T10:41:59.682Z,9.40
2022-11-03T10:43:02.189Z,7.43
2022-11-03T10:44:19.888Z,15.00
2022-11-03T10:45:22.804Z,6.93
2022-11-03T10:46:55.054Z,6.28
2022-11-03T10:48:01.589Z,8.05
2022-11-03T10:49:16.956Z,10.48
2022-11-03T10:50:27.041Z,6.40
2022-11-03T10:51:29.691Z,8.13
2022-11-03T10:52:32.068Z,7.22
2022-11-03T10:53:34.565Z,6.47
2022-11-03T10:54:37.969Z,9.50
2022-11-03T10:55:41.196Z,5.47
2022-11-03T10:56:45.050Z,8.65
2022-11-03T10:57:52.048Z,7.47
2022-11-03T10:58:59.831Z,8.77
2022-11-03T11:00:02.671Z,6.28
2022-11-03T11:01:06.267Z,4.75
2022-11-03T11:02:20.539Z,8.20
2022-11-03T11:03:23.275Z,5.10
2022-11-03T11:04:26.158Z,4.97
2022-11-03T11:05:28.586Z,7.53
2022-11-03T11:06:31.526Z,6.25
2022-11-03T11:07:41.385Z,6.35
2022-11-03T11:08:43.913Z,5.35
2022-11-03T11:09:46.551Z,13.48
2022-11-03T11:10:49.130Z,4.60
2022-11-03T11:12:14.416Z,5.43
2022-11-03T11:13:22.956Z,4.03
2022-11-03T11:14:28.272Z,6.28
2022-11-03T11:15:39.051Z,8.43
2022-11-03T11:16:49.404Z,6.70
2022-11-03T11:17:51.765Z,10.52
2022-11-03T11:18:54.060Z,6.72
2022-11-03T11:20:34.520Z,8.00
2022-11-03T11:21:39.622Z,4.03
2022-11-03T11:22:42.026Z,7.70
2022-11-03T11:23:46.595Z,7.45
2022-11-03T11:24:48.928Z,4.13
2022-11-03T11:26:14.011Z,11.07
2022-11-03T11:27:34.429Z,5.55
2022-11-03T11:28:38.799Z,7.75
2022-11-03T11:29:41.228Z,6.05
2022-11-03T11:30:57.315Z,8.05
2022-11-03T11:31:59.633Z,5.60
2022-11-03T11:33:14.474Z,5.22
2022-11-03T11:34:17.318Z,3.42
2022-11-03T11:35:22.557Z,7.35
2022-11-03T11:36:25.512Z,4.55
2022-11-03T11:37:27.755Z,3.40
2022-11-03T11:38:48.600Z,4.25
2022-11-03T11:39:50.951Z,4.03
2022-11-03T11:40:53.331Z,4.53
2022-11-03T11:42:14.376Z,3.35
2022-11-03T11:43:19.516Z,6.72
2022-11-03T11:44:43.251Z,4.43
2022-11-03T11:46:41.024Z,4.03
2022-11-03T11:47:47.944Z,6.00
2022-11-03T11:49:17.031Z,5.20
2022-11-03T11:50:29.355Z,3.72
2022-11-03T11:51:36.085Z,23.63
2022-11-03T11:52:41.885Z,23.60
2022-11-03T11:53:46.120Z,15.82
2022-11-03T11:54:50.800Z,12.73
2022-11-03T11:56:00.181Z,11.40
2022-11-03T11:57:02.759Z,11.80
2022-11-03T11:58:15.568Z,10.18
2022-11-03T11:59:26.177Z,11.95
2022-11-03T12:00:32.054Z,9.55
2022-11-03T12:01:37.702Z,5.90
2022-11-03T12:02:46.048Z,14.20
2022-11-03T12:03:50.816Z,9.75
2022-11-03T12:05:03.110Z,7.18
2022-11-03T12:06:06.225Z,9.52
2022-11-03T12:07:13.257Z,7.32
2022-11-03T12:08:29.577Z,7.80
2022-11-03T12:09:35.309Z,7.63
2022-11-03T12:10:37.648Z,8.90
2022-11-03T12:11:45.896Z,12.38
2022-11-03T12:12:49.742Z,6.82
2022-11-03T12:13:52.939Z,10.20
2022-11-03T12:14:55.477Z,8.27
2022-11-03T12:16:13.992Z,6.28
2022-11-03T12:17:16.918Z,5.80
2022-11-03T12:18:50.401Z,11.60
2022-11-03T12:19:54.630Z,8.07
2022-11-03T12:20:56.921Z,6.13
2022-11-03T12:21:59.499Z,6.78
2022-11-03T12:23:01.918Z,5.38
2022-11-03T12:24:48.602Z,10.10
2022-11-03T12:25:50.951Z,7.95
2022-11-03T12:26:53.523Z,6.95
2022-11-03T12:27:55.974Z,4.53
2022-11-03T12:28:58.206Z,6.90
2022-11-03T12:30:04.315Z,4.70
2022-11-03T12:31:06.742Z,6.50
2022-11-03T12:32:25.550Z,6.40
2022-11-03T12:33:31.661Z,4.18
2022-11-03T12:34:33.990Z,4.32
2022-11-03T12:35:39.261Z,4.35
2022-11-03T12:36:41.509Z,4.38
2022-11-03T12:37:43.814Z,5.22
2022-11-03T12:38:46.421Z,4.65
2022-11-03T12:39:48.962Z,4.55
2022-11-03T12:40:53.047Z,8.50
2022-11-03T12:41:55.464Z,4.78
2022-11-03T12:42:57.788Z,7.90
2022-11-03T12:44:00.206Z,4.47
2022-11-03T12:45:03.013Z,5.70
2022-11-03T12:46:06.075Z,6.53
2022-11-03T12:47:08.769Z,3.67
2022-11-03T12:48:11.107Z,6.57
2022-11-03T12:49:13.435Z,5.47
2022-11-03T12:50:15.855Z,5.72
2022-11-03T12:51:20.220Z,18.52
2022-11-03T12:52:22.610Z,9.68
2022-11-03T12:53:24.885Z,4.28
2022-11-03T12:54:27.281Z,5.10
2022-11-03T12:55:29.640Z,7.53
2022-11-03T12:56:31.921Z,5.25
2022-11-03T12:57:34.343Z,8.50
2022-11-03T12:58:37.323Z,6.65
2022-11-03T12:59:39.703Z,4.50
2022-11-03T13:00:46.350Z,8.75
2022-11-03T13:01:52.615Z,4.07
2022-11-03T13:02:55.192Z,4.38
2022-11-03T13:04:00.653Z,8.90
2022-11-03T13:05:03.197Z,5.32
2022-11-03T13:06:09.886Z,9.90
2022-11-03T13:07:12.389Z,4.22
2022-11-03T13:08:14.736Z,6.30
2022-11-03T13:09:17.036Z,2.80
2022-11-03T13:10:19.441Z,6.28
2022-11-03T13:11:40.626Z,7.93
2022-11-03T13:12:44.856Z,9.80
2022-11-03T13:13:47.228Z,9.90
2022-11-03T13:14:49.547Z,6.32
2022-11-03T13:15:54.483Z,11.98
2022-11-03T13:16:56.788Z,4.25
2022-11-03T13:18:12.711Z,5.78
2022-11-03T13:19:19.025Z,2.53
2022-11-03T13:20:21.301Z,5.63
2022-11-03T13:21:23.606Z,10.18
2022-11-03T13:22:28.904Z,5.18
2022-11-03T13:23:31.255Z,4.68
2022-11-03T13:24:33.545Z,6.03
2022-11-03T13:25:36.034Z,5.30
2022-11-03T13:26:38.860Z,15.15
2022-11-03T13:27:41.357Z,4.20
2022-11-03T13:28:44.761Z,5.45
2022-11-03T13:29:47.284Z,5.53
2022-11-03T13:30:49.643Z,8.05
2022-11-03T13:31:51.917Z,5.50
2022-11-03T13:32:54.291Z,6.40
2022-11-03T13:33:59.070Z,5.07
2022-11-03T13:35:01.904Z,6.43
2022-11-03T13:36:07.065Z,5.88
2022-11-03T13:37:10.315Z,9.00
2022-11-03T13:38:13.240Z,6.60
2022-11-03T13:39:20.590Z,5.35
2022-11-03T13:41:46.830Z,7.82
2022-11-03T13:42:49.343Z,4.75
2022-11-03T13:43:51.635Z,4.82
2022-11-03T13:44:54.002Z,3.35
2022-11-03T13:46:02.212Z,2.75
2022-11-03T13:47:05.510Z,8.50
2022-11-03T13:49:07.440Z,6.72
2022-11-03T13:50:56.410Z,5.00
2022-11-03T13:51:59.524Z,3.28
2022-11-03T13:56:08.492Z,3.85
2022-11-03T13:59:58.983Z,4.28
2022-11-03T14:01:03.156Z,26.95
2022-11-03T14:04:59.395Z,3.13
2022-11-03T14:06:02.397Z,9.98
2022-11-03T14:07:08.241Z,3.22
2022-11-03T14:08:10.802Z,3.60
2022-11-03T14:09:15.579Z,4.25
2022-11-03T14:10:17.972Z,4.43
2022-11-03T14:11:41.154Z,6.30
2022-11-03T14:12:43.483Z,4.43
2022-11-03T14:13:46.405Z,5.43
2022-11-03T14:14:48.712Z,7.18
2022-11-03T14:15:51.009Z,5.07
2022-11-03T14:16:53.446Z,5.88
2022-11-03T14:17:55.880Z,3.78
2022-11-03T14:18:58.161Z,2.10
2022-11-03T14:20:04.151Z,3.10
2022-11-03T14:21:07.392Z,4.70
2022-11-03T14:22:09.714Z,2.67
2022-11-03T14:23:11.995Z,3.63
2022-11-03T14:24:14.264Z,2.88
2022-11-03T14:25:16.756Z,3.90
2022-11-03T14:26:40.187Z,4.70
2022-11-03T14:27:41.952Z,3.58
2022-11-03T14:28:44.813Z,3.60
2022-11-03T14:29:50.662Z,4.63
2022-11-03T14:30:55.354Z,5.10
2022-11-03T14:31:58.212Z,3.70
2022-11-03T14:33:04.642Z,2.25
2022-11-03T14:34:08.054Z,4.38
2022-11-03T14:35:13.146Z,4.93
2022-11-03T14:36:16.160Z,2.53
2022-11-03T14:37:19.000Z,2.72
2022-11-03T14:38:21.356Z,3.22
2022-11-03T14:39:26.219Z,2.92
2022-11-03T14:40:47.259Z,2.30
2022-11-03T14:42:05.281Z,4.55
2022-11-03T14:43:08.421Z,4.07
2022-11-03T14:44:11.657Z,2.00
2022-11-03T14:45:13.937Z,4.97
2022-11-03T14:46:17.124Z,1.38